sensor_id;sensor_type;location;lat;lon;timestamp;P1;durP1;ratioP1;P2;durP2;ratioP2
37641;SDS011;23486;51.956;5.888;2023-06-24T00:00:03;6.22;;;4.68;;
37641;SDS011;23486;51.956;5.888;2023-06-24T00:02:32;7.13;;;4.72;;
37641;SDS011;23486;51.956;5.888;2023-06-24T00:05:03;6.55;;;4.35;;
37641;SDS011;23486;51.956;5.888;2023-06-24T00:07:29;6.28;;;4.75;;
37641;SDS011;23486;51.956;5.888;2023-06-24T00:09:55;5.65;;;4.35;;
37641;SDS011;23486;51.956;5.888;2023-06-24T00:12:20;5.68;;;4.50;;
37641;SDS011;23486;51.956;5.888;2023-06-24T00:14:46;7.68;;;4.93;;
37641;SDS011;23486;51.956;5.888;2023-06-24T00:17:15;7.55;;;4.53;;
37641;SDS011;23486;51.956;5.888;2023-06-24T00:19:41;5.85;;;4.20;;
37641;SDS011;23486;51.956;5.888;2023-06-24T00:22:09;7.55;;;5.22;;
37641;SDS011;23486;51.956;5.888;2023-06-24T00:24:34;8.23;;;4.70;;
37641;SDS011;23486;51.956;5.888;2023-06-24T00:27:00;6.93;;;4.75;;
37641;SDS011;23486;51.956;5.888;2023-06-24T00:29:26;6.30;;;4.63;;
37641;SDS011;23486;51.956;5.888;2023-06-24T00:31:51;4.88;;;4.00;;
37641;SDS011;23486;51.956;5.888;2023-06-24T00:34:17;7.60;;;4.95;;
37641;SDS011;23486;51.956;5.888;2023-06-24T00:36:45;6.07;;;4.45;;
37641;SDS011;23486;51.956;5.888;2023-06-24T00:39:13;6.32;;;4.85;;
37641;SDS011;23486;51.956;5.888;2023-06-24T00:41:39;6.43;;;4.97;;
37641;SDS011;23486;51.956;5.888;2023-06-24T00:44:04;6.95;;;5.30;;
37641;SDS011;23486;51.956;5.888;2023-06-24T00:46:30;6.57;;;5.18;;
37641;SDS011;23486;51.956;5.888;2023-06-24T00:48:58;6.05;;;4.25;;
37641;SDS011;23486;51.956;5.888;2023-06-24T00:51:26;6.45;;;4.50;;
37641;SDS011;23486;51.956;5.888;2023-06-24T00:53:55;6.93;;;5.47;;
37641;SDS011;23486;51.956;5.888;2023-06-24T00:56:21;7.18;;;5.95;;
37641;SDS011;23486;51.956;5.888;2023-06-24T00:58:50;6.78;;;4.57;;
37641;SDS011;23486;51.956;5.888;2023-06-24T01:01:17;7.13;;;5.18;;
37641;SDS011;23486;51.956;5.888;2023-06-24T01:03:43;10.00;;;6.05;;
37641;SDS011;23486;51.956;5.888;2023-06-24T01:06:09;6.45;;;4.93;;
37641;SDS011;23486;51.956;5.888;2023-06-24T01:08:35;8.20;;;5.30;;
37641;SDS011;23486;51.956;5.888;2023-06-24T01:11:00;6.68;;;5.57;;
37641;SDS011;23486;51.956;5.888;2023-06-24T01:13:26;6.20;;;4.82;;
37641;SDS011;23486;51.956;5.888;2023-06-24T01:15:52;6.35;;;5.03;;
37641;SDS011;23486;51.956;5.888;2023-06-24T01:20:48;5.78;;;4.82;;
37641;SDS011;23486;51.956;5.888;2023-06-24T01:26:19;7.65;;;6.00;;
37641;SDS011;23486;51.956;5.888;2023-06-24T01:29:00;9.00;;;5.63;;
37641;SDS011;23486;51.956;5.888;2023-06-24T01:39:52;7.55;;;6.20;;
37641;SDS011;23486;51.956;5.888;2023-06-24T01:42:25;8.00;;;5.88;;
37641;SDS011;23486;51.956;5.888;2023-06-24T01:44:55;7.32;;;6.10;;
37641;SDS011;23486;51.956;5.888;2023-06-24T01:47:23;7.00;;;5.65;;
37641;SDS011;23486;51.956;5.888;2023-06-24T01:49:52;9.55;;;7.25;;
37641;SDS011;23486;51.956;5.888;2023-06-24T01:52:20;11.43;;;6.80;;
37641;SDS011;23486;51.956;5.888;2023-06-24T01:54:48;7.38;;;6.03;;
37641;SDS011;23486;51.956;5.888;2023-06-24T01:57:18;8.88;;;6.82;;
37641;SDS011;23486;51.956;5.888;2023-06-24T01:59:45;8.90;;;6.95;;
37641;SDS011;23486;51.956;5.888;2023-06-24T02:02:12;9.93;;;6.97;;
37641;SDS011;23486;51.956;5.888;2023-06-24T02:04:38;10.63;;;6.95;;
37641;SDS011;23486;51.956;5.888;2023-06-24T02:07:05;9.65;;;6.63;;
37641;SDS011;23486;51.956;5.888;2023-06-24T02:09:33;9.55;;;7.07;;
37641;SDS011;23486;51.956;5.888;2023-06-24T02:12:00;9.05;;;7.10;;
37641;SDS011;23486;51.956;5.888;2023-06-24T02:14:28;8.30;;;7.45;;
37641;SDS011;23486;51.956;5.888;2023-06-24T02:16:55;8.73;;;7.70;;
37641;SDS011;23486;51.956;5.888;2023-06-24T02:19:27;7.35;;;6.07;;
37641;SDS011;23486;51.956;5.888;2023-06-24T02:21:55;7.70;;;6.50;;
37641;SDS011;23486;51.956;5.888;2023-06-24T02:24:22;8.73;;;6.78;;
37641;SDS011;23486;51.956;5.888;2023-06-24T02:26:49;7.75;;;6.78;;
37641;SDS011;23486;51.956;5.888;2023-06-24T02:29:16;7.75;;;6.57;;
37641;SDS011;23486;51.956;5.888;2023-06-24T02:31:43;9.32;;;6.85;;
37641;SDS011;23486;51.956;5.888;2023-06-24T02:34:08;10.65;;;7.68;;
37641;SDS011;23486;51.956;5.888;2023-06-24T02:36:34;9.63;;;7.78;;
37641;SDS011;23486;51.956;5.888;2023-06-24T02:39:00;10.05;;;7.57;;
37641;SDS011;23486;51.956;5.888;2023-06-24T02:41:26;7.93;;;6.82;;
37641;SDS011;23486;51.956;5.888;2023-06-24T02:43:51;8.90;;;7.55;;
37641;SDS011;23486;51.956;5.888;2023-06-24T02:46:17;8.15;;;6.78;;
37641;SDS011;23486;51.956;5.888;2023-06-24T02:48:44;11.73;;;8.10;;
37641;SDS011;23486;51.956;5.888;2023-06-24T02:51:11;11.95;;;7.75;;
37641;SDS011;23486;51.956;5.888;2023-06-24T02:53:38;15.63;;;8.52;;
37641;SDS011;23486;51.956;5.888;2023-06-24T02:56:04;10.05;;;7.75;;
37641;SDS011;23486;51.956;5.888;2023-06-24T02:58:31;10.65;;;7.28;;
37641;SDS011;23486;51.956;5.888;2023-06-24T03:01:01;11.75;;;8.30;;
37641;SDS011;23486;51.956;5.888;2023-06-24T03:03:32;10.07;;;7.28;;
37641;SDS011;23486;51.956;5.888;2023-06-24T03:05:58;8.77;;;7.43;;
37641;SDS011;23486;51.956;5.888;2023-06-24T03:08:27;10.40;;;7.45;;
37641;SDS011;23486;51.956;5.888;2023-06-24T03:10:54;9.88;;;7.50;;
37641;SDS011;23486;51.956;5.888;2023-06-24T03:13:20;9.63;;;7.72;;
37641;SDS011;23486;51.956;5.888;2023-06-24T03:15:46;10.30;;;8.05;;
37641;SDS011;23486;51.956;5.888;2023-06-24T03:18:12;12.50;;;7.75;;
37641;SDS011;23486;51.956;5.888;2023-06-24T03:20:38;9.68;;;7.50;;
37641;SDS011;23486;51.956;5.888;2023-06-24T03:23:07;9.07;;;6.38;;
37641;SDS011;23486;51.956;5.888;2023-06-24T03:25:33;12.30;;;7.90;;
37641;SDS011;23486;51.956;5.888;2023-06-24T03:27:59;11.65;;;7.63;;
37641;SDS011;23486;51.956;5.888;2023-06-24T03:30:32;11.48;;;7.47;;
37641;SDS011;23486;51.956;5.888;2023-06-24T03:32:58;11.98;;;7.85;;
37641;SDS011;23486;51.956;5.888;2023-06-24T03:35:24;10.77;;;8.32;;
37641;SDS011;23486;51.956;5.888;2023-06-24T03:37:52;11.52;;;7.40;;
37641;SDS011;23486;51.956;5.888;2023-06-24T03:40:18;8.63;;;6.78;;
37641;SDS011;23486;51.956;5.888;2023-06-24T03:42:46;11.18;;;8.40;;
37641;SDS011;23486;51.956;5.888;2023-06-24T03:45:12;11.48;;;7.63;;
37641;SDS011;23486;51.956;5.888;2023-06-24T03:47:38;9.52;;;7.68;;
37641;SDS011;23486;51.956;5.888;2023-06-24T03:50:04;10.68;;;8.20;;
37641;SDS011;23486;51.956;5.888;2023-06-24T03:52:30;11.00;;;8.27;;
37641;SDS011;23486;51.956;5.888;2023-06-24T03:54:59;10.75;;;8.63;;
37641;SDS011;23486;51.956;5.888;2023-06-24T03:57:26;8.93;;;7.55;;
37641;SDS011;23486;51.956;5.888;2023-06-24T03:59:52;12.68;;;7.85;;
37641;SDS011;23486;51.956;5.888;2023-06-24T04:02:17;9.32;;;7.95;;
37641;SDS011;23486;51.956;5.888;2023-06-24T04:04:43;9.85;;;6.93;;
37641;SDS011;23486;51.956;5.888;2023-06-24T04:07:08;9.90;;;7.53;;
37641;SDS011;23486;51.956;5.888;2023-06-24T04:09:34;11.77;;;8.10;;
37641;SDS011;23486;51.956;5.888;2023-06-24T04:12:00;10.73;;;7.78;;
37641;SDS011;23486;51.956;5.888;2023-06-24T04:14:28;10.88;;;8.57;;
37641;SDS011;23486;51.956;5.888;2023-06-24T04:16:53;10.65;;;7.50;;
37641;SDS011;23486;51.956;5.888;2023-06-24T04:19:19;10.30;;;7.88;;
37641;SDS011;23486;51.956;5.888;2023-06-24T04:21:45;10.45;;;7.90;;
37641;SDS011;23486;51.956;5.888;2023-06-24T04:24:10;10.35;;;7.90;;
37641;SDS011;23486;51.956;5.888;2023-06-24T04:26:36;12.05;;;8.88;;
37641;SDS011;23486;51.956;5.888;2023-06-24T04:29:04;9.98;;;7.90;;
37641;SDS011;23486;51.956;5.888;2023-06-24T04:31:32;10.52;;;8.45;;
37641;SDS011;23486;51.956;5.888;2023-06-24T04:33:58;13.05;;;8.93;;
37641;SDS011;23486;51.956;5.888;2023-06-24T04:36:24;12.10;;;9.20;;
37641;SDS011;23486;51.956;5.888;2023-06-24T04:38:49;9.90;;;8.18;;
37641;SDS011;23486;51.956;5.888;2023-06-24T04:41:15;13.43;;;9.80;;
37641;SDS011;23486;51.956;5.888;2023-06-24T04:43:40;11.63;;;8.75;;
37641;SDS011;23486;51.956;5.888;2023-06-24T04:46:06;14.90;;;9.73;;
37641;SDS011;23486;51.956;5.888;2023-06-24T04:48:32;13.48;;;9.73;;
37641;SDS011;23486;51.956;5.888;2023-06-24T04:50:57;12.82;;;9.85;;
37641;SDS011;23486;51.956;5.888;2023-06-24T04:53:23;13.95;;;9.52;;
37641;SDS011;23486;51.956;5.888;2023-06-24T04:55:49;11.52;;;9.23;;
37641;SDS011;23486;51.956;5.888;2023-06-24T04:58:14;11.65;;;8.82;;
37641;SDS011;23486;51.956;5.888;2023-06-24T05:00:40;12.35;;;9.30;;
37641;SDS011;23486;51.956;5.888;2023-06-24T05:03:06;12.18;;;9.63;;
37641;SDS011;23486;51.956;5.888;2023-06-24T05:05:31;12.43;;;8.98;;
37641;SDS011;23486;51.956;5.888;2023-06-24T05:07:57;11.25;;;9.20;;
37641;SDS011;23486;51.956;5.888;2023-06-24T05:10:23;13.13;;;9.27;;
37641;SDS011;23486;51.956;5.888;2023-06-24T05:12:48;13.25;;;9.52;;
37641;SDS011;23486;51.956;5.888;2023-06-24T05:15:14;13.68;;;9.75;;
37641;SDS011;23486;51.956;5.888;2023-06-24T05:17:40;11.68;;;8.48;;
37641;SDS011;23486;51.956;5.888;2023-06-24T05:20:07;13.43;;;9.88;;
37641;SDS011;23486;51.956;5.888;2023-06-24T05:22:33;12.07;;;8.27;;
37641;SDS011;23486;51.956;5.888;2023-06-24T05:24:58;8.93;;;6.97;;
37641;SDS011;23486;51.956;5.888;2023-06-24T05:27:24;8.73;;;6.35;;
37641;SDS011;23486;51.956;5.888;2023-06-24T05:29:49;9.43;;;6.97;;
37641;SDS011;23486;51.956;5.888;2023-06-24T05:32:15;8.70;;;5.60;;
37641;SDS011;23486;51.956;5.888;2023-06-24T05:34:42;6.43;;;4.72;;
37641;SDS011;23486;51.956;5.888;2023-06-24T05:37:08;7.72;;;5.00;;
37641;SDS011;23486;51.956;5.888;2023-06-24T05:39:34;7.18;;;4.53;;
37641;SDS011;23486;51.956;5.888;2023-06-24T05:41:59;5.65;;;3.85;;
37641;SDS011;23486;51.956;5.888;2023-06-24T05:46:59;6.18;;;3.75;;
37641;SDS011;23486;51.956;5.888;2023-06-24T05:49:25;5.47;;;3.63;;
37641;SDS011;23486;51.956;5.888;2023-06-24T05:51:51;6.80;;;4.13;;
37641;SDS011;23486;51.956;5.888;2023-06-24T05:54:16;10.27;;;5.65;;
37641;SDS011;23486;51.956;5.888;2023-06-24T05:56:45;8.23;;;5.07;;
37641;SDS011;23486;51.956;5.888;2023-06-24T05:59:10;6.82;;;3.72;;
37641;SDS011;23486;51.956;5.888;2023-06-24T06:01:36;6.68;;;4.38;;
37641;SDS011;23486;51.956;5.888;2023-06-24T06:04:02;7.72;;;3.83;;
37641;SDS011;23486;51.956;5.888;2023-06-24T06:06:27;5.65;;;3.45;;
37641;SDS011;23486;51.956;5.888;2023-06-24T06:08:53;7.70;;;3.47;;
37641;SDS011;23486;51.956;5.888;2023-06-24T06:11:18;6.57;;;3.88;;
37641;SDS011;23486;51.956;5.888;2023-06-24T06:13:44;5.57;;;3.55;;
37641;SDS011;23486;51.956;5.888;2023-06-24T06:16:09;5.22;;;3.67;;
37641;SDS011;23486;51.956;5.888;2023-06-24T06:18:35;5.80;;;3.50;;
37641;SDS011;23486;51.956;5.888;2023-06-24T06:21:01;6.65;;;4.32;;
37641;SDS011;23486;51.956;5.888;2023-06-24T06:23:26;6.95;;;4.53;;
37641;SDS011;23486;51.956;5.888;2023-06-24T06:25:52;8.63;;;5.22;;
37641;SDS011;23486;51.956;5.888;2023-06-24T06:28:17;5.90;;;3.95;;
37641;SDS011;23486;51.956;5.888;2023-06-24T06:30:43;6.70;;;3.97;;
37641;SDS011;23486;51.956;5.888;2023-06-24T06:33:09;6.13;;;3.92;;
37641;SDS011;23486;51.956;5.888;2023-06-24T06:35:34;5.90;;;3.83;;
37641;SDS011;23486;51.956;5.888;2023-06-24T06:38:00;5.80;;;3.40;;
37641;SDS011;23486;51.956;5.888;2023-06-24T06:40:26;5.05;;;3.33;;
37641;SDS011;23486;51.956;5.888;2023-06-24T06:42:53;5.55;;;2.85;;
37641;SDS011;23486;51.956;5.888;2023-06-24T06:45:19;5.38;;;2.90;;
37641;SDS011;23486;51.956;5.888;2023-06-24T06:47:45;6.18;;;3.78;;
37641;SDS011;23486;51.956;5.888;2023-06-24T06:50:10;6.65;;;4.18;;
37641;SDS011;23486;51.956;5.888;2023-06-24T06:52:36;7.13;;;3.75;;
37641;SDS011;23486;51.956;5.888;2023-06-24T06:55:03;9.25;;;4.93;;
37641;SDS011;23486;51.956;5.888;2023-06-24T06:57:29;8.38;;;4.85;;
37641;SDS011;23486;51.956;5.888;2023-06-24T06:59:55;8.20;;;4.63;;
37641;SDS011;23486;51.956;5.888;2023-06-24T07:02:21;7.15;;;4.63;;
37641;SDS011;23486;51.956;5.888;2023-06-24T07:04:47;8.40;;;4.55;;
37641;SDS011;23486;51.956;5.888;2023-06-24T07:07:16;6.25;;;4.28;;
37641;SDS011;23486;51.956;5.888;2023-06-24T07:09:42;6.22;;;3.78;;
37641;SDS011;23486;51.956;5.888;2023-06-24T07:12:08;7.03;;;3.65;;
37641;SDS011;23486;51.956;5.888;2023-06-24T07:14:33;5.93;;;3.65;;
37641;SDS011;23486;51.956;5.888;2023-06-24T07:17:05;7.18;;;3.17;;
37641;SDS011;23486;51.956;5.888;2023-06-24T07:19:33;6.32;;;3.85;;
37641;SDS011;23486;51.956;5.888;2023-06-24T07:21:59;7.72;;;4.93;;
37641;SDS011;23486;51.956;5.888;2023-06-24T07:24:24;7.03;;;3.55;;
37641;SDS011;23486;51.956;5.888;2023-06-24T07:26:50;8.23;;;4.10;;
37641;SDS011;23486;51.956;5.888;2023-06-24T07:29:15;9.40;;;5.05;;
37641;SDS011;23486;51.956;5.888;2023-06-24T07:31:41;8.85;;;5.13;;
37641;SDS011;23486;51.956;5.888;2023-06-24T07:34:07;8.77;;;5.07;;
37641;SDS011;23486;51.956;5.888;2023-06-24T07:39:06;7.03;;;3.90;;
37641;SDS011;23486;51.956;5.888;2023-06-24T07:41:32;5.78;;;3.75;;
37641;SDS011;23486;51.956;5.888;2023-06-24T07:43:58;7.05;;;3.78;;
37641;SDS011;23486;51.956;5.888;2023-06-24T07:46:24;5.72;;;2.92;;
37641;SDS011;23486;51.956;5.888;2023-06-24T07:48:52;3.85;;;2.20;;
37641;SDS011;23486;51.956;5.888;2023-06-24T07:51:23;3.70;;;1.50;;
37641;SDS011;23486;51.956;5.888;2023-06-24T07:53:49;3.05;;;1.50;;
37641;SDS011;23486;51.956;5.888;2023-06-24T07:56:14;4.45;;;1.88;;
37641;SDS011;23486;51.956;5.888;2023-06-24T07:58:40;3.75;;;2.35;;
37641;SDS011;23486;51.956;5.888;2023-06-24T08:01:06;4.68;;;2.05;;
37641;SDS011;23486;51.956;5.888;2023-06-24T08:03:31;3.95;;;2.17;;
37641;SDS011;23486;51.956;5.888;2023-06-24T08:05:57;3.60;;;2.08;;
37641;SDS011;23486;51.956;5.888;2023-06-24T08:08:22;3.92;;;2.50;;
37641;SDS011;23486;51.956;5.888;2023-06-24T08:10:48;4.68;;;2.53;;
37641;SDS011;23486;51.956;5.888;2023-06-24T08:13:13;4.07;;;1.83;;
37641;SDS011;23486;51.956;5.888;2023-06-24T08:15:39;2.92;;;1.63;;
37641;SDS011;23486;51.956;5.888;2023-06-24T08:18:05;3.55;;;1.92;;
37641;SDS011;23486;51.956;5.888;2023-06-24T08:20:30;4.15;;;1.73;;
37641;SDS011;23486;51.956;5.888;2023-06-24T08:22:56;4.00;;;1.67;;
37641;SDS011;23486;51.956;5.888;2023-06-24T08:25:24;4.03;;;1.70;;
37641;SDS011;23486;51.956;5.888;2023-06-24T08:27:50;4.47;;;2.40;;
37641;SDS011;23486;51.956;5.888;2023-06-24T08:30:18;4.80;;;1.65;;
37641;SDS011;23486;51.956;5.888;2023-06-24T08:32:43;3.78;;;1.42;;
37641;SDS011;23486;51.956;5.888;2023-06-24T08:35:09;3.80;;;1.67;;
37641;SDS011;23486;51.956;5.888;2023-06-24T08:37:35;4.32;;;1.98;;
37641;SDS011;23486;51.956;5.888;2023-06-24T08:40:02;5.00;;;1.30;;
37641;SDS011;23486;51.956;5.888;2023-06-24T08:42:29;3.92;;;1.77;;
37641;SDS011;23486;51.956;5.888;2023-06-24T08:44:55;3.55;;;1.38;;
37641;SDS011;23486;51.956;5.888;2023-06-24T08:47:24;2.22;;;1.00;;
37641;SDS011;23486;51.956;5.888;2023-06-24T08:49:55;4.63;;;1.92;;
37641;SDS011;23486;51.956;5.888;2023-06-24T08:52:29;4.90;;;1.33;;
37641;SDS011;23486;51.956;5.888;2023-06-24T08:54:56;3.17;;;1.65;;
37641;SDS011;23486;51.956;5.888;2023-06-24T08:57:25;4.20;;;1.25;;
37641;SDS011;23486;51.956;5.888;2023-06-24T08:59:51;3.38;;;1.30;;
37641;SDS011;23486;51.956;5.888;2023-06-24T09:02:18;4.18;;;2.10;;
37641;SDS011;23486;51.956;5.888;2023-06-24T09:04:47;4.68;;;2.10;;
37641;SDS011;23486;51.956;5.888;2023-06-24T09:07:12;5.53;;;2.05;;
37641;SDS011;23486;51.956;5.888;2023-06-24T09:09:42;5.13;;;2.80;;
37641;SDS011;23486;51.956;5.888;2023-06-24T09:12:11;5.65;;;2.40;;
37641;SDS011;23486;51.956;5.888;2023-06-24T09:14:38;3.97;;;2.08;;
37641;SDS011;23486;51.956;5.888;2023-06-24T09:17:08;3.83;;;1.73;;
37641;SDS011;23486;51.956;5.888;2023-06-24T09:19:34;3.58;;;1.20;;
37641;SDS011;23486;51.956;5.888;2023-06-24T09:22:05;5.88;;;1.42;;
37641;SDS011;23486;51.956;5.888;2023-06-24T09:24:42;2.83;;;1.08;;
37641;SDS011;23486;51.956;5.888;2023-06-24T09:27:15;3.30;;;1.73;;
37641;SDS011;23486;51.956;5.888;2023-06-24T09:32:12;4.18;;;1.67;;
37641;SDS011;23486;51.956;5.888;2023-06-24T09:34:38;4.05;;;1.60;;
37641;SDS011;23486;51.956;5.888;2023-06-24T09:37:04;5.18;;;2.40;;
37641;SDS011;23486;51.956;5.888;2023-06-24T09:39:34;3.95;;;1.65;;
37641;SDS011;23486;51.956;5.888;2023-06-24T09:42:05;3.70;;;1.60;;
37641;SDS011;23486;51.956;5.888;2023-06-24T09:44:32;4.38;;;1.80;;
37641;SDS011;23486;51.956;5.888;2023-06-24T09:46:58;3.20;;;1.40;;
37641;SDS011;23486;51.956;5.888;2023-06-24T09:49:24;2.58;;;1.00;;
37641;SDS011;23486;51.956;5.888;2023-06-24T09:51:52;3.78;;;1.27;;
37641;SDS011;23486;51.956;5.888;2023-06-24T09:54:21;3.33;;;1.40;;
37641;SDS011;23486;51.956;5.888;2023-06-24T09:56:49;3.45;;;1.67;;
37641;SDS011;23486;51.956;5.888;2023-06-24T09:59:15;4.38;;;1.83;;
37641;SDS011;23486;51.956;5.888;2023-06-24T10:01:44;4.43;;;1.83;;
37641;SDS011;23486;51.956;5.888;2023-06-24T10:04:15;4.55;;;1.67;;
37641;SDS011;23486;51.956;5.888;2023-06-24T10:06:42;3.42;;;1.30;;
37641;SDS011;23486;51.956;5.888;2023-06-24T10:09:08;3.72;;;1.98;;
37641;SDS011;23486;51.956;5.888;2023-06-24T10:11:38;3.42;;;1.80;;
37641;SDS011;23486;51.956;5.888;2023-06-24T10:14:04;3.10;;;1.33;;
37641;SDS011;23486;51.956;5.888;2023-06-24T10:16:30;3.28;;;1.30;;
37641;SDS011;23486;51.956;5.888;2023-06-24T10:18:59;3.28;;;1.67;;
37641;SDS011;23486;51.956;5.888;2023-06-24T10:21:43;3.58;;;1.65;;
37641;SDS011;23486;51.956;5.888;2023-06-24T10:26:54;4.45;;;1.80;;
37641;SDS011;23486;51.956;5.888;2023-06-24T10:29:37;4.75;;;1.80;;
37641;SDS011;23486;51.956;5.888;2023-06-24T10:32:06;4.38;;;2.60;;
37641;SDS011;23486;51.956;5.888;2023-06-24T10:34:49;3.67;;;2.05;;
37641;SDS011;23486;51.956;5.888;2023-06-24T10:37:21;3.30;;;1.67;;
37641;SDS011;23486;51.956;5.888;2023-06-24T10:39:56;3.20;;;1.10;;
37641;SDS011;23486;51.956;5.888;2023-06-24T10:44:53;4.47;;;1.48;;
37641;SDS011;23486;51.956;5.888;2023-06-24T10:47:23;4.63;;;1.98;;
37641;SDS011;23486;51.956;5.888;2023-06-24T10:49:49;3.35;;;1.40;;
37641;SDS011;23486;51.956;5.888;2023-06-24T10:52:17;2.58;;;1.23;;
37641;SDS011;23486;51.956;5.888;2023-06-24T10:54:47;3.95;;;1.40;;
37641;SDS011;23486;51.956;5.888;2023-06-24T10:57:14;3.13;;;1.65;;
37641;SDS011;23486;51.956;5.888;2023-06-24T10:59:46;5.00;;;2.47;;
37641;SDS011;23486;51.956;5.888;2023-06-24T11:02:13;3.28;;;1.30;;
37641;SDS011;23486;51.956;5.888;2023-06-24T11:05:13;5.45;;;2.28;;
37641;SDS011;23486;51.956;5.888;2023-06-24T11:07:32;5.35;;;2.22;;
37641;SDS011;23486;51.956;5.888;2023-06-24T11:10:09;3.65;;;2.05;;
37641;SDS011;23486;51.956;5.888;2023-06-24T11:12:37;3.47;;;1.80;;
37641;SDS011;23486;51.956;5.888;2023-06-24T11:15:04;5.25;;;1.85;;
37641;SDS011;23486;51.956;5.888;2023-06-24T11:17:32;6.18;;;3.60;;
37641;SDS011;23486;51.956;5.888;2023-06-24T11:20:02;6.47;;;3.05;;
37641;SDS011;23486;51.956;5.888;2023-06-24T11:22:34;4.15;;;2.45;;
37641;SDS011;23486;51.956;5.888;2023-06-24T11:25:00;5.03;;;2.30;;
37641;SDS011;23486;51.956;5.888;2023-06-24T11:27:29;4.07;;;2.55;;
37641;SDS011;23486;51.956;5.888;2023-06-24T11:29:56;3.95;;;2.05;;
37641;SDS011;23486;51.956;5.888;2023-06-24T11:32:25;6.40;;;3.33;;
37641;SDS011;23486;51.956;5.888;2023-06-24T11:35:00;5.90;;;3.65;;
37641;SDS011;23486;51.956;5.888;2023-06-24T11:37:30;4.00;;;2.22;;
37641;SDS011;23486;51.956;5.888;2023-06-24T11:40:00;5.65;;;2.83;;
37641;SDS011;23486;51.956;5.888;2023-06-24T11:42:30;5.18;;;2.33;;
37641;SDS011;23486;51.956;5.888;2023-06-24T11:45:00;4.57;;;2.35;;
37641;SDS011;23486;51.956;5.888;2023-06-24T11:47:32;3.75;;;1.77;;
37641;SDS011;23486;51.956;5.888;2023-06-24T11:50:02;8.35;;;3.13;;
37641;SDS011;23486;51.956;5.888;2023-06-24T11:55:13;4.28;;;1.85;;
37641;SDS011;23486;51.956;5.888;2023-06-24T11:57:49;3.57;;;1.87;;
37641;SDS011;23486;51.956;5.888;2023-06-24T12:00:44;4.03;;;2.00;;
37641;SDS011;23486;51.956;5.888;2023-06-24T12:03:12;4.75;;;1.60;;
37641;SDS011;23486;51.956;5.888;2023-06-24T12:05:37;3.58;;;1.80;;
37641;SDS011;23486;51.956;5.888;2023-06-24T12:08:09;6.05;;;2.40;;
37641;SDS011;23486;51.956;5.888;2023-06-24T12:10:38;5.22;;;2.53;;
37641;SDS011;23486;51.956;5.888;2023-06-24T12:13:04;3.25;;;1.45;;
37641;SDS011;23486;51.956;5.888;2023-06-24T12:15:31;4.25;;;1.98;;
37641;SDS011;23486;51.956;5.888;2023-06-24T12:17:57;3.58;;;1.52;;
37641;SDS011;23486;51.956;5.888;2023-06-24T12:20:24;4.72;;;2.65;;
37641;SDS011;23486;51.956;5.888;2023-06-24T12:22:53;5.78;;;3.42;;
37641;SDS011;23486;51.956;5.888;2023-06-24T12:25:20;4.00;;;1.70;;
37641;SDS011;23486;51.956;5.888;2023-06-24T12:27:46;3.10;;;1.35;;
37641;SDS011;23486;51.956;5.888;2023-06-24T12:30:14;4.40;;;2.15;;
37641;SDS011;23486;51.956;5.888;2023-06-24T12:32:41;5.90;;;2.10;;
37641;SDS011;23486;51.956;5.888;2023-06-24T12:35:08;3.38;;;1.58;;
37641;SDS011;23486;51.956;5.888;2023-06-24T12:37:37;3.85;;;2.22;;
37641;SDS011;23486;51.956;5.888;2023-06-24T12:40:03;3.60;;;1.77;;
37641;SDS011;23486;51.956;5.888;2023-06-24T12:42:29;3.38;;;1.55;;
37641;SDS011;23486;51.956;5.888;2023-06-24T12:44:55;3.63;;;2.03;;
37641;SDS011;23486;51.956;5.888;2023-06-24T12:47:21;4.25;;;2.05;;
37641;SDS011;23486;51.956;5.888;2023-06-24T12:49:47;4.30;;;1.70;;
37641;SDS011;23486;51.956;5.888;2023-06-24T12:52:14;3.42;;;1.60;;
37641;SDS011;23486;51.956;5.888;2023-06-24T12:54:40;5.65;;;2.55;;
37641;SDS011;23486;51.956;5.888;2023-06-24T12:57:06;3.33;;;1.70;;
37641;SDS011;23486;51.956;5.888;2023-06-24T12:59:31;3.55;;;1.45;;
37641;SDS011;23486;51.956;5.888;2023-06-24T13:02:00;2.85;;;1.40;;
37641;SDS011;23486;51.956;5.888;2023-06-24T13:04:26;3.95;;;1.17;;
37641;SDS011;23486;51.956;5.888;2023-06-24T13:06:52;3.42;;;1.27;;
37641;SDS011;23486;51.956;5.888;2023-06-24T13:09:17;2.47;;;1.00;;
37641;SDS011;23486;51.956;5.888;2023-06-24T13:11:43;5.18;;;1.52;;
37641;SDS011;23486;51.956;5.888;2023-06-24T13:14:09;3.33;;;1.63;;
37641;SDS011;23486;51.956;5.888;2023-06-24T13:16:38;4.32;;;1.70;;
37641;SDS011;23486;51.956;5.888;2023-06-24T13:19:03;3.50;;;2.13;;
37641;SDS011;23486;51.956;5.888;2023-06-24T13:21:29;3.03;;;1.33;;
37641;SDS011;23486;51.956;5.888;2023-06-24T13:23:55;4.28;;;1.80;;
37641;SDS011;23486;51.956;5.888;2023-06-24T13:26:21;3.70;;;1.17;;
37641;SDS011;23486;51.956;5.888;2023-06-24T13:28:46;3.60;;;1.17;;
37641;SDS011;23486;51.956;5.888;2023-06-24T13:31:14;4.30;;;1.38;;
37641;SDS011;23486;51.956;5.888;2023-06-24T13:33:40;4.28;;;1.55;;
37641;SDS011;23486;51.956;5.888;2023-06-24T13:36:05;3.92;;;1.55;;
37641;SDS011;23486;51.956;5.888;2023-06-24T13:38:32;2.17;;;1.13;;
37641;SDS011;23486;51.956;5.888;2023-06-24T13:40:58;2.95;;;1.42;;
37641;SDS011;23486;51.956;5.888;2023-06-24T13:43:24;3.22;;;1.20;;
37641;SDS011;23486;51.956;5.888;2023-06-24T13:45:51;2.30;;;0.90;;
37641;SDS011;23486;51.956;5.888;2023-06-24T13:48:16;3.25;;;1.02;;
37641;SDS011;23486;51.956;5.888;2023-06-24T13:50:42;3.03;;;1.00;;
37641;SDS011;23486;51.956;5.888;2023-06-24T13:53:08;1.85;;;0.70;;
37641;SDS011;23486;51.956;5.888;2023-06-24T13:55:33;2.50;;;0.68;;
37641;SDS011;23486;51.956;5.888;2023-06-24T13:58:01;2.78;;;1.13;;
37641;SDS011;23486;51.956;5.888;2023-06-24T14:00:27;1.70;;;0.70;;
37641;SDS011;23486;51.956;5.888;2023-06-24T14:02:53;2.05;;;0.90;;
37641;SDS011;23486;51.956;5.888;2023-06-24T14:05:18;2.30;;;1.10;;
37641;SDS011;23486;51.956;5.888;2023-06-24T14:07:48;3.05;;;1.40;;
37641;SDS011;23486;51.956;5.888;2023-06-24T14:10:14;2.60;;;1.17;;
37641;SDS011;23486;51.956;5.888;2023-06-24T14:12:40;2.97;;;1.23;;
37641;SDS011;23486;51.956;5.888;2023-06-24T14:15:07;2.50;;;1.10;;
37641;SDS011;23486;51.956;5.888;2023-06-24T14:17:34;2.38;;;1.20;;
37641;SDS011;23486;51.956;5.888;2023-06-24T14:19:59;3.58;;;1.83;;
37641;SDS011;23486;51.956;5.888;2023-06-24T14:22:25;2.88;;;1.35;;
37641;SDS011;23486;51.956;5.888;2023-06-24T14:24:51;3.08;;;1.17;;
37641;SDS011;23486;51.956;5.888;2023-06-24T14:27:17;3.83;;;1.17;;
37641;SDS011;23486;51.956;5.888;2023-06-24T14:29:42;2.50;;;1.00;;
37641;SDS011;23486;51.956;5.888;2023-06-24T14:32:08;1.45;;;0.80;;
37641;SDS011;23486;51.956;5.888;2023-06-24T14:34:33;2.15;;;0.90;;
37641;SDS011;23486;51.956;5.888;2023-06-24T14:36:59;2.17;;;0.90;;
37641;SDS011;23486;51.956;5.888;2023-06-24T14:39:24;4.80;;;0.85;;
37641;SDS011;23486;51.956;5.888;2023-06-24T14:41:53;1.90;;;0.80;;
37641;SDS011;23486;51.956;5.888;2023-06-24T14:44:19;2.40;;;1.30;;
37641;SDS011;23486;51.956;5.888;2023-06-24T14:46:44;3.38;;;0.98;;
37641;SDS011;23486;51.956;5.888;2023-06-24T14:49:10;2.22;;;1.05;;
37641;SDS011;23486;51.956;5.888;2023-06-24T14:51:35;4.43;;;1.48;;
37641;SDS011;23486;51.956;5.888;2023-06-24T14:54:01;2.90;;;1.10;;
37641;SDS011;23486;51.956;5.888;2023-06-24T14:56:26;2.65;;;1.23;;
37641;SDS011;23486;51.956;5.888;2023-06-24T14:58:52;2.67;;;1.23;;
37641;SDS011;23486;51.956;5.888;2023-06-24T15:01:18;3.78;;;0.90;;
37641;SDS011;23486;51.956;5.888;2023-06-24T15:03:43;2.88;;;1.10;;
37641;SDS011;23486;51.956;5.888;2023-06-24T15:06:09;2.08;;;0.93;;
37641;SDS011;23486;51.956;5.888;2023-06-24T15:08:34;2.40;;;1.10;;
37641;SDS011;23486;51.956;5.888;2023-06-24T15:11:00;3.78;;;1.38;;
37641;SDS011;23486;51.956;5.888;2023-06-24T15:13:25;2.20;;;1.00;;